Accueil
METAR-TAF:

METAR-TAF

Aéroports :

Kosrae, Micronésie

Aéroport international de Kosrae

latitude: 05-21N, longitude: 162-57E, altitude: 3 m

Observation

Le bulletin a été fait il y a 9 heures et 52 minutes, à 23:50 UTC
Vent 5 kt de nord-est
Température 29°C
Humidité 79%
Pression 1005 hPa
Visibilité: 16.1 km
Nuages épars à une hauteur de 1500 ft
Nuages fragmentés à une hauteur de 13000 ft
Ciel couvert à une hauteur de 30000 ft

METAR: PTSA 232350Z 05005KT 10SM SCT015 BKN130 OVC300 29/25 A2968 RMK LAST

Heure: 20:42 (09:42 UTC)

Prévision

Le bulletin a été fait il y a 9 heures et 56 minutes, à 23:46 UTC
Prévision valable du 24 à 00 UTC au 24 à 24 UTC
Vent 8 kt de est
Visibilité: 10 km
Quelques nuages à une hauteur de 1600 ft
Nuages épars à une hauteur de 4000 ft
Nuages fragmentés à une hauteur de 14000 ft
averses à proximité

TAF: PTSA 232346Z 2400/2424 09008KT P6SM VCSH FEW016 SCT040 BKN140

Observations et prévisions météorologiques de plus de 4000 aéroports (messages METAR et TAF).

Les stations disponibles sont représentées par des disques jaunes et rouges sur la carte.

Passer la souris dessus pour voir le nom de la station.

Cliquer dessus pour voir les observations et prévisions météorologiques.

Pour changer de carte: cliquez sur les boutons verts avec une croix noire pour zoomer, sur le bouton vert avec un tiret pour effectuer un zoom arrière, ou sur les flèches vertes pour les cartes adjacentes.


METAR-TAF: